sensor_id;sensor_type;location;lat;lon;timestamp;temperature;humidity
23532;DHT22;11943;52.270;20.978;2023-04-23T00:01:35;11.40;99.20
23532;DHT22;11943;52.270;20.978;2023-04-23T00:04:04;11.40;98.90
23532;DHT22;11943;52.270;20.978;2023-04-23T00:06:33;11.50;98.70
23532;DHT22;11943;52.270;20.978;2023-04-23T00:08:59;11.40;99.90
23532;DHT22;11943;52.270;20.978;2023-04-23T00:11:26;11.40;99.90
23532;DHT22;11943;52.270;20.978;2023-04-23T00:13:52;11.40;99.90
23532;DHT22;11943;52.270;20.978;2023-04-23T00:16:19;11.40;99.90
23532;DHT22;11943;52.270;20.978;2023-04-23T00:18:45;11.30;99.90
23532;DHT22;11943;52.270;20.978;2023-04-23T00:21:11;11.30;99.90
23532;DHT22;11943;52.270;20.978;2023-04-23T00:23:38;11.20;99.90
23532;DHT22;11943;52.270;20.978;2023-04-23T00:26:04;11.20;99.90
23532;DHT22;11943;52.270;20.978;2023-04-23T00:28:29;11.20;99.90
23532;DHT22;11943;52.270;20.978;2023-04-23T00:30:55;11.10;99.90
23532;DHT22;11943;52.270;20.978;2023-04-23T00:33:22;11.10;99.90
23532;DHT22;11943;52.270;20.978;2023-04-23T00:35:47;11.10;99.90
23532;DHT22;11943;52.270;20.978;2023-04-23T00:38:13;11.00;99.90
23532;DHT22;11943;52.270;20.978;2023-04-23T00:40:39;11.00;99.90
23532;DHT22;11943;52.270;20.978;2023-04-23T00:43:05;10.90;99.90
23532;DHT22;11943;52.270;20.978;2023-04-23T00:45:32;10.90;99.90
23532;DHT22;11943;52.270;20.978;2023-04-23T00:47:58;10.90;99.90
23532;DHT22;11943;52.270;20.978;2023-04-23T00:50:24;10.80;99.90
23532;DHT22;11943;52.270;20.978;2023-04-23T00:52:50;10.80;99.90
23532;DHT22;11943;52.270;20.978;2023-04-23T00:55:16;10.70;99.90
23532;DHT22;11943;52.270;20.978;2023-04-23T00:57:45;10.70;99.90
23532;DHT22;11943;52.270;20.978;2023-04-23T01:00:12;10.60;99.90
23532;DHT22;11943;52.270;20.978;2023-04-23T01:02:38;10.50;99.90
23532;DHT22;11943;52.270;20.978;2023-04-23T01:05:07;10.50;99.90
23532;DHT22;11943;52.270;20.978;2023-04-23T01:07:34;10.40;99.90
23532;DHT22;11943;52.270;20.978;2023-04-23T01:10:00;10.40;99.90
23532;DHT22;11943;52.270;20.978;2023-04-23T01:12:26;10.40;99.90
23532;DHT22;11943;52.270;20.978;2023-04-23T01:14:52;10.40;99.90
23532;DHT22;11943;52.270;20.978;2023-04-23T01:17:17;10.30;99.90
23532;DHT22;11943;52.270;20.978;2023-04-23T01:19:43;10.30;99.90
23532;DHT22;11943;52.270;20.978;2023-04-23T01:22:13;10.20;99.90
23532;DHT22;11943;52.270;20.978;2023-04-23T01:24:39;10.20;99.90
23532;DHT22;11943;52.270;20.978;2023-04-23T01:27:07;10.20;99.90
23532;DHT22;11943;52.270;20.978;2023-04-23T01:29:33;10.20;99.90
23532;DHT22;11943;52.270;20.978;2023-04-23T01:32:00;10.20;99.90
23532;DHT22;11943;52.270;20.978;2023-04-23T01:34:26;10.20;99.90
23532;DHT22;11943;52.270;20.978;2023-04-23T01:36:53;10.20;99.90
23532;DHT22;11943;52.270;20.978;2023-04-23T01:39:18;10.10;99.90
23532;DHT22;11943;52.270;20.978;2023-04-23T01:41:45;10.10;99.90
23532;DHT22;11943;52.270;20.978;2023-04-23T01:44:11;10.00;99.90
23532;DHT22;11943;52.270;20.978;2023-04-23T01:46:37;10.00;99.90
23532;DHT22;11943;52.270;20.978;2023-04-23T01:49:03;10.00;99.90
23532;DHT22;11943;52.270;20.978;2023-04-23T01:51:29;10.00;99.90
23532;DHT22;11943;52.270;20.978;2023-04-23T01:53:55;10.10;99.90
23532;DHT22;11943;52.270;20.978;2023-04-23T01:56:24;10.10;99.90
23532;DHT22;11943;52.270;20.978;2023-04-23T01:58:51;10.10;99.90
23532;DHT22;11943;52.270;20.978;2023-04-23T02:01:17;10.10;99.90
23532;DHT22;11943;52.270;20.978;2023-04-23T02:03:43;10.00;99.90
23532;DHT22;11943;52.270;20.978;2023-04-23T02:06:09;10.00;99.90
23532;DHT22;11943;52.270;20.978;2023-04-23T02:08:35;10.00;99.90
23532;DHT22;11943;52.270;20.978;2023-04-23T02:11:01;10.00;99.90
23532;DHT22;11943;52.270;20.978;2023-04-23T02:13:27;10.00;99.90
23532;DHT22;11943;52.270;20.978;2023-04-23T02:15:52;9.90;99.90
23532;DHT22;11943;52.270;20.978;2023-04-23T02:18:18;9.90;99.90
23532;DHT22;11943;52.270;20.978;2023-04-23T02:20:44;9.90;99.90
23532;DHT22;11943;52.270;20.978;2023-04-23T02:23:09;9.80;99.90
23532;DHT22;11943;52.270;20.978;2023-04-23T02:25:36;9.80;99.90
23532;DHT22;11943;52.270;20.978;2023-04-23T02:28:04;9.80;99.90
23532;DHT22;11943;52.270;20.978;2023-04-23T02:30:31;9.80;99.90
23532;DHT22;11943;52.270;20.978;2023-04-23T02:32:57;9.70;99.90
23532;DHT22;11943;52.270;20.978;2023-04-23T02:35:23;9.70;99.90
23532;DHT22;11943;52.270;20.978;2023-04-23T02:37:50;9.60;99.90
23532;DHT22;11943;52.270;20.978;2023-04-23T02:40:16;9.60;99.90
23532;DHT22;11943;52.270;20.978;2023-04-23T02:42:41;9.60;99.90
23532;DHT22;11943;52.270;20.978;2023-04-23T02:45:07;9.50;99.90
23532;DHT22;11943;52.270;20.978;2023-04-23T02:47:33;9.50;99.90
23532;DHT22;11943;52.270;20.978;2023-04-23T02:49:58;9.50;99.90
23532;DHT22;11943;52.270;20.978;2023-04-23T02:52:27;9.50;99.90
23532;DHT22;11943;52.270;20.978;2023-04-23T02:54:53;9.40;99.90
23532;DHT22;11943;52.270;20.978;2023-04-23T02:57:18;9.40;99.90
23532;DHT22;11943;52.270;20.978;2023-04-23T02:59:44;9.40;99.90
23532;DHT22;11943;52.270;20.978;2023-04-23T03:02:10;9.30;99.90
23532;DHT22;11943;52.270;20.978;2023-04-23T03:04:36;9.30;99.90
23532;DHT22;11943;52.270;20.978;2023-04-23T03:07:02;9.30;99.90
23532;DHT22;11943;52.270;20.978;2023-04-23T03:09:27;9.30;99.90
23532;DHT22;11943;52.270;20.978;2023-04-23T03:11:53;9.20;99.90
23532;DHT22;11943;52.270;20.978;2023-04-23T03:14:18;9.20;99.90
23532;DHT22;11943;52.270;20.978;2023-04-23T03:16:44;9.10;99.90
23532;DHT22;11943;52.270;20.978;2023-04-23T03:19:10;9.10;99.90
23532;DHT22;11943;52.270;20.978;2023-04-23T03:21:35;9.10;99.90
23532;DHT22;11943;52.270;20.978;2023-04-23T03:24:01;9.10;99.90
23532;DHT22;11943;52.270;20.978;2023-04-23T03:26:26;9.10;99.90
23532;DHT22;11943;52.270;20.978;2023-04-23T03:28:52;9.10;99.90
23532;DHT22;11943;52.270;20.978;2023-04-23T03:31:18;9.10;99.90
23532;DHT22;11943;52.270;20.978;2023-04-23T03:33:43;9.10;99.90
23532;DHT22;11943;52.270;20.978;2023-04-23T03:36:09;9.20;99.90
23532;DHT22;11943;52.270;20.978;2023-04-23T03:38:35;9.20;99.90
23532;DHT22;11943;52.270;20.978;2023-04-23T03:41:01;9.20;99.90
23532;DHT22;11943;52.270;20.978;2023-04-23T03:43:26;9.20;99.90
23532;DHT22;11943;52.270;20.978;2023-04-23T03:45:52;9.20;99.90
23532;DHT22;11943;52.270;20.978;2023-04-23T03:48:17;9.20;99.90
23532;DHT22;11943;52.270;20.978;2023-04-23T03:50:43;9.20;99.90
23532;DHT22;11943;52.270;20.978;2023-04-23T03:53:09;9.30;99.90
23532;DHT22;11943;52.270;20.978;2023-04-23T03:55:34;9.20;99.90
23532;DHT22;11943;52.270;20.978;2023-04-23T03:58:02;9.20;99.90
23532;DHT22;11943;52.270;20.978;2023-04-23T04:00:27;9.30;99.90
23532;DHT22;11943;52.270;20.978;2023-04-23T04:02:53;9.30;99.90
23532;DHT22;11943;52.270;20.978;2023-04-23T04:05:19;9.30;99.90
23532;DHT22;11943;52.270;20.978;2023-04-23T04:07:45;9.30;99.90
23532;DHT22;11943;52.270;20.978;2023-04-23T04:10:10;9.40;99.90
23532;DHT22;11943;52.270;20.978;2023-04-23T04:12:36;9.40;99.90
23532;DHT22;11943;52.270;20.978;2023-04-23T04:15:03;9.50;99.90
23532;DHT22;11943;52.270;20.978;2023-04-23T04:17:29;9.50;99.90
23532;DHT22;11943;52.270;20.978;2023-04-23T04:19:54;9.50;99.90
23532;DHT22;11943;52.270;20.978;2023-04-23T04:22:20;9.60;99.90
23532;DHT22;11943;52.270;20.978;2023-04-23T04:24:46;9.70;99.90
23532;DHT22;11943;52.270;20.978;2023-04-23T04:27:13;9.70;99.90
23532;DHT22;11943;52.270;20.978;2023-04-23T04:29:39;9.70;99.90
23532;DHT22;11943;52.270;20.978;2023-04-23T04:32:07;9.80;99.90
23532;DHT22;11943;52.270;20.978;2023-04-23T04:34:32;9.80;99.90
23532;DHT22;11943;52.270;20.978;2023-04-23T04:36:58;9.90;99.90
23532;DHT22;11943;52.270;20.978;2023-04-23T04:39:23;10.00;99.90
23532;DHT22;11943;52.270;20.978;2023-04-23T04:41:50;10.10;99.90
23532;DHT22;11943;52.270;20.978;2023-04-23T04:44:16;10.20;99.90
23532;DHT22;11943;52.270;20.978;2023-04-23T04:46:42;10.20;99.90
23532;DHT22;11943;52.270;20.978;2023-04-23T04:49:11;10.30;99.90
23532;DHT22;11943;52.270;20.978;2023-04-23T04:51:38;10.40;99.90
23532;DHT22;11943;52.270;20.978;2023-04-23T04:54:04;10.50;99.90
23532;DHT22;11943;52.270;20.978;2023-04-23T04:56:29;10.50;99.90
23532;DHT22;11943;52.270;20.978;2023-04-23T04:58:55;10.60;99.90
23532;DHT22;11943;52.270;20.978;2023-04-23T05:01:21;10.70;99.90
23532;DHT22;11943;52.270;20.978;2023-04-23T05:03:49;10.80;99.90
23532;DHT22;11943;52.270;20.978;2023-04-23T05:06:14;10.90;99.90
23532;DHT22;11943;52.270;20.978;2023-04-23T05:08:41;10.90;99.90
23532;DHT22;11943;52.270;20.978;2023-04-23T05:11:07;11.00;99.90
23532;DHT22;11943;52.270;20.978;2023-04-23T05:13:33;11.10;99.90
23532;DHT22;11943;52.270;20.978;2023-04-23T05:15:59;11.20;99.90
23532;DHT22;11943;52.270;20.978;2023-04-23T05:18:25;11.30;99.10
23532;DHT22;11943;52.270;20.978;2023-04-23T05:20:50;11.40;98.50
23532;DHT22;11943;52.270;20.978;2023-04-23T05:23:16;11.60;98.10
23532;DHT22;11943;52.270;20.978;2023-04-23T05:25:43;11.80;96.80
23532;DHT22;11943;52.270;20.978;2023-04-23T05:28:08;12.20;95.60
23532;DHT22;11943;52.270;20.978;2023-04-23T05:30:34;12.70;94.10
23532;DHT22;11943;52.270;20.978;2023-04-23T05:33:00;13.40;91.60
23532;DHT22;11943;52.270;20.978;2023-04-23T05:35:26;14.00;85.00
23532;DHT22;11943;52.270;20.978;2023-04-23T05:37:51;14.50;81.70
23532;DHT22;11943;52.270;20.978;2023-04-23T05:40:17;15.20;78.80
23532;DHT22;11943;52.270;20.978;2023-04-23T05:42:43;15.50;73.90
23532;DHT22;11943;52.270;20.978;2023-04-23T05:45:09;16.00;72.50
23532;DHT22;11943;52.270;20.978;2023-04-23T05:47:34;16.30;68.30
23532;DHT22;11943;52.270;20.978;2023-04-23T05:50:00;16.70;66.60
23532;DHT22;11943;52.270;20.978;2023-04-23T05:52:27;16.90;66.40
23532;DHT22;11943;52.270;20.978;2023-04-23T05:54:55;16.80;65.80
23532;DHT22;11943;52.270;20.978;2023-04-23T05:57:21;17.00;64.10
23532;DHT22;11943;52.270;20.978;2023-04-23T05:59:47;17.10;63.30
23532;DHT22;11943;52.270;20.978;2023-04-23T06:02:12;17.30;62.50
23532;DHT22;11943;52.270;20.978;2023-04-23T06:04:38;17.40;63.40
23532;DHT22;11943;52.270;20.978;2023-04-23T06:07:05;17.50;63.00
23532;DHT22;11943;52.270;20.978;2023-04-23T06:09:30;17.40;62.20
23532;DHT22;11943;52.270;20.978;2023-04-23T06:11:56;17.30;62.80
23532;DHT22;11943;52.270;20.978;2023-04-23T06:14:22;16.70;63.60
23532;DHT22;11943;52.270;20.978;2023-04-23T06:16:48;16.60;66.60
23532;DHT22;11943;52.270;20.978;2023-04-23T06:19:13;16.30;66.30
23532;DHT22;11943;52.270;20.978;2023-04-23T06:21:39;15.70;66.80
23532;DHT22;11943;52.270;20.978;2023-04-23T06:24:05;15.60;69.20
23532;DHT22;11943;52.270;20.978;2023-04-23T06:26:32;15.40;69.10
23532;DHT22;11943;52.270;20.978;2023-04-23T06:28:58;15.10;69.80
23532;DHT22;11943;52.270;20.978;2023-04-23T06:31:23;15.40;71.40
23532;DHT22;11943;52.270;20.978;2023-04-23T06:33:49;15.60;70.20
23532;DHT22;11943;52.270;20.978;2023-04-23T06:36:15;15.70;70.10
23532;DHT22;11943;52.270;20.978;2023-04-23T06:38:40;16.00;69.80
23532;DHT22;11943;52.270;20.978;2023-04-23T06:41:06;16.10;68.70
23532;DHT22;11943;52.270;20.978;2023-04-23T06:43:32;16.20;67.00
23532;DHT22;11943;52.270;20.978;2023-04-23T06:45:58;16.30;65.40
23532;DHT22;11943;52.270;20.978;2023-04-23T06:48:24;16.50;65.90
23532;DHT22;11943;52.270;20.978;2023-04-23T06:50:50;16.60;66.80
23532;DHT22;11943;52.270;20.978;2023-04-23T06:53:16;16.70;64.00
23532;DHT22;11943;52.270;20.978;2023-04-23T06:55:42;16.30;64.50
23532;DHT22;11943;52.270;20.978;2023-04-23T06:58:08;16.50;66.30
23532;DHT22;11943;52.270;20.978;2023-04-23T07:00:34;16.60;62.70
23532;DHT22;11943;52.270;20.978;2023-04-23T07:03:00;16.40;63.60
23532;DHT22;11943;52.270;20.978;2023-04-23T07:05:25;16.40;64.80
23532;DHT22;11943;52.270;20.978;2023-04-23T07:07:51;16.50;62.90
23532;DHT22;11943;52.270;20.978;2023-04-23T07:10:17;16.70;62.70
23532;DHT22;11943;52.270;20.978;2023-04-23T07:12:43;17.00;63.10
23532;DHT22;11943;52.270;20.978;2023-04-23T07:15:10;17.00;62.00
23532;DHT22;11943;52.270;20.978;2023-04-23T07:17:36;17.30;61.00
23532;DHT22;11943;52.270;20.978;2023-04-23T07:20:02;17.50;60.60
23532;DHT22;11943;52.270;20.978;2023-04-23T07:22:31;17.60;58.60
23532;DHT22;11943;52.270;20.978;2023-04-23T07:24:57;17.70;58.80
23532;DHT22;11943;52.270;20.978;2023-04-23T07:27:23;17.80;58.80
23532;DHT22;11943;52.270;20.978;2023-04-23T07:29:49;17.70;58.50
23532;DHT22;11943;52.270;20.978;2023-04-23T07:32:14;17.90;59.20
23532;DHT22;11943;52.270;20.978;2023-04-23T07:34:40;18.00;58.40
23532;DHT22;11943;52.270;20.978;2023-04-23T07:37:06;18.10;57.50
23532;DHT22;11943;52.270;20.978;2023-04-23T07:39:32;18.40;57.50
23532;DHT22;11943;52.270;20.978;2023-04-23T07:41:58;18.60;57.40
23532;DHT22;11943;52.270;20.978;2023-04-23T07:44:24;18.40;55.60
23532;DHT22;11943;52.270;20.978;2023-04-23T07:46:50;18.60;56.50
23532;DHT22;11943;52.270;20.978;2023-04-23T07:49:16;18.40;55.60
23532;DHT22;11943;52.270;20.978;2023-04-23T07:51:42;18.60;56.10
23532;DHT22;11943;52.270;20.978;2023-04-23T07:54:08;18.60;55.40
23532;DHT22;11943;52.270;20.978;2023-04-23T07:56:34;18.90;56.30
23532;DHT22;11943;52.270;20.978;2023-04-23T07:59:00;19.00;54.60
23532;DHT22;11943;52.270;20.978;2023-04-23T08:01:27;19.10;54.70
23532;DHT22;11943;52.270;20.978;2023-04-23T08:03:53;19.10;54.10
23532;DHT22;11943;52.270;20.978;2023-04-23T08:06:21;19.10;54.40
23532;DHT22;11943;52.270;20.978;2023-04-23T08:08:48;19.20;53.90
23532;DHT22;11943;52.270;20.978;2023-04-23T08:11:14;19.30;53.90
23532;DHT22;11943;52.270;20.978;2023-04-23T08:13:40;19.40;53.40
23532;DHT22;11943;52.270;20.978;2023-04-23T08:16:05;19.50;52.90
23532;DHT22;11943;52.270;20.978;2023-04-23T08:18:31;19.50;50.40
23532;DHT22;11943;52.270;20.978;2023-04-23T08:20:57;19.60;52.90
23532;DHT22;11943;52.270;20.978;2023-04-23T08:23:23;19.70;52.10
23532;DHT22;11943;52.270;20.978;2023-04-23T08:25:48;19.90;51.70
23532;DHT22;11943;52.270;20.978;2023-04-23T08:28:14;19.90;50.90
23532;DHT22;11943;52.270;20.978;2023-04-23T08:30:40;20.10;51.20
23532;DHT22;11943;52.270;20.978;2023-04-23T08:33:06;20.50;50.80
23532;DHT22;11943;52.270;20.978;2023-04-23T08:35:32;20.80;49.60
23532;DHT22;11943;52.270;20.978;2023-04-23T08:37:57;20.70;48.40
23532;DHT22;11943;52.270;20.978;2023-04-23T08:40:25;20.70;50.60
23532;DHT22;11943;52.270;20.978;2023-04-23T08:42:57;20.90;50.80
23532;DHT22;11943;52.270;20.978;2023-04-23T08:45:25;21.00;48.20
23532;DHT22;11943;52.270;20.978;2023-04-23T08:47:52;20.70;47.40
23532;DHT22;11943;52.270;20.978;2023-04-23T08:50:21;20.50;47.40
23532;DHT22;11943;52.270;20.978;2023-04-23T08:52:54;20.40;45.50
23532;DHT22;11943;52.270;20.978;2023-04-23T08:55:21;20.40;46.50
23532;DHT22;11943;52.270;20.978;2023-04-23T08:57:48;20.30;45.10
23532;DHT22;11943;52.270;20.978;2023-04-23T09:00:15;20.70;48.10
23532;DHT22;11943;52.270;20.978;2023-04-23T09:02:42;20.90;47.90
23532;DHT22;11943;52.270;20.978;2023-04-23T09:05:08;20.90;45.00
23532;DHT22;11943;52.270;20.978;2023-04-23T09:07:34;20.70;44.30
23532;DHT22;11943;52.270;20.978;2023-04-23T09:10:01;20.60;46.30
23532;DHT22;11943;52.270;20.978;2023-04-23T09:12:27;20.70;45.00
23532;DHT22;11943;52.270;20.978;2023-04-23T09:14:53;20.80;45.50
23532;DHT22;11943;52.270;20.978;2023-04-23T09:17:20;20.90;46.30
23532;DHT22;11943;52.270;20.978;2023-04-23T09:19:46;21.10;44.90
23532;DHT22;11943;52.270;20.978;2023-04-23T09:22:13;21.20;43.60
23532;DHT22;11943;52.270;20.978;2023-04-23T09:24:41;21.10;44.40
23532;DHT22;11943;52.270;20.978;2023-04-23T09:27:10;21.10;44.00
23532;DHT22;11943;52.270;20.978;2023-04-23T09:29:35;21.00;43.70
23532;DHT22;11943;52.270;20.978;2023-04-23T09:32:08;21.00;43.60
23532;DHT22;11943;52.270;20.978;2023-04-23T09:34:35;21.20;42.60
23532;DHT22;11943;52.270;20.978;2023-04-23T09:37:04;21.30;42.20
23532;DHT22;11943;52.270;20.978;2023-04-23T09:39:33;21.30;43.50
23532;DHT22;11943;52.270;20.978;2023-04-23T09:42:04;21.40;42.80
23532;DHT22;11943;52.270;20.978;2023-04-23T09:44:33;21.50;44.00
23532;DHT22;11943;52.270;20.978;2023-04-23T09:47:08;21.50;42.10
23532;DHT22;11943;52.270;20.978;2023-04-23T09:49:47;21.70;43.40
23532;DHT22;11943;52.270;20.978;2023-04-23T09:52:13;21.70;43.00
23532;DHT22;11943;52.270;20.978;2023-04-23T09:54:39;21.70;42.60
23532;DHT22;11943;52.270;20.978;2023-04-23T09:57:05;22.00;43.50
23532;DHT22;11943;52.270;20.978;2023-04-23T09:59:34;22.20;43.30
23532;DHT22;11943;52.270;20.978;2023-04-23T10:02:02;22.10;43.60
23532;DHT22;11943;52.270;20.978;2023-04-23T10:04:28;22.00;42.60
23532;DHT22;11943;52.270;20.978;2023-04-23T10:06:54;22.30;43.40
23532;DHT22;11943;52.270;20.978;2023-04-23T10:09:21;21.90;42.60
23532;DHT22;11943;52.270;20.978;2023-04-23T10:11:55;21.90;42.80
23532;DHT22;11943;52.270;20.978;2023-04-23T10:14:22;22.00;43.20
23532;DHT22;11943;52.270;20.978;2023-04-23T10:16:56;22.00;42.60
23532;DHT22;11943;52.270;20.978;2023-04-23T10:19:23;22.10;41.90
23532;DHT22;11943;52.270;20.978;2023-04-23T10:21:55;21.90;41.10
23532;DHT22;11943;52.270;20.978;2023-04-23T10:24:25;21.80;42.00
23532;DHT22;11943;52.270;20.978;2023-04-23T10:27:00;22.00;41.70
23532;DHT22;11943;52.270;20.978;2023-04-23T10:29:31;22.20;42.50
23532;DHT22;11943;52.270;20.978;2023-04-23T10:32:00;22.10;41.50
23532;DHT22;11943;52.270;20.978;2023-04-23T10:34:28;22.00;42.10
23532;DHT22;11943;52.270;20.978;2023-04-23T10:36:55;22.30;42.70
23532;DHT22;11943;52.270;20.978;2023-04-23T10:39:23;22.20;42.60
23532;DHT22;11943;52.270;20.978;2023-04-23T10:41:49;22.30;41.00
23532;DHT22;11943;52.270;20.978;2023-04-23T10:44:19;22.40;40.10
23532;DHT22;11943;52.270;20.978;2023-04-23T10:46:56;22.50;40.60
23532;DHT22;11943;52.270;20.978;2023-04-23T10:49:30;22.40;40.30
23532;DHT22;11943;52.270;20.978;2023-04-23T10:52:03;22.10;39.30
23532;DHT22;11943;52.270;20.978;2023-04-23T10:54:33;22.20;41.90
23532;DHT22;11943;52.270;20.978;2023-04-23T10:57:08;22.30;41.00
23532;DHT22;11943;52.270;20.978;2023-04-23T10:59:38;22.50;39.80
23532;DHT22;11943;52.270;20.978;2023-04-23T11:02:11;22.60;40.60
23532;DHT22;11943;52.270;20.978;2023-04-23T11:04:56;22.60;39.00
23532;DHT22;11943;52.270;20.978;2023-04-23T11:07:33;22.40;38.80
23532;DHT22;11943;52.270;20.978;2023-04-23T11:10:13;22.60;39.70
23532;DHT22;11943;52.270;20.978;2023-04-23T11:12:39;22.60;39.70
23532;DHT22;11943;52.270;20.978;2023-04-23T11:15:10;22.60;37.50
23532;DHT22;11943;52.270;20.978;2023-04-23T11:20:10;22.90;39.10
23532;DHT22;11943;52.270;20.978;2023-04-23T11:22:57;22.60;38.10
23532;DHT22;11943;52.270;20.978;2023-04-23T11:25:27;22.60;40.40
23532;DHT22;11943;52.270;20.978;2023-04-23T11:27:56;22.50;41.30
23532;DHT22;11943;52.270;20.978;2023-04-23T11:30:27;22.60;38.90
23532;DHT22;11943;52.270;20.978;2023-04-23T11:32:53;22.50;37.10
23532;DHT22;11943;52.270;20.978;2023-04-23T11:35:21;22.60;37.40
23532;DHT22;11943;52.270;20.978;2023-04-23T11:37:47;22.70;38.00
23532;DHT22;11943;52.270;20.978;2023-04-23T11:40:15;22.60;37.40
23532;DHT22;11943;52.270;20.978;2023-04-23T11:42:53;22.60;38.10
23532;DHT22;11943;52.270;20.978;2023-04-23T11:45:25;22.70;39.10
23532;DHT22;11943;52.270;20.978;2023-04-23T11:47:54;22.80;38.50
23532;DHT22;11943;52.270;20.978;2023-04-23T11:50:30;22.70;37.40
23532;DHT22;11943;52.270;20.978;2023-04-23T11:53:03;22.50;37.60
23532;DHT22;11943;52.270;20.978;2023-04-23T11:55:29;22.80;38.20
23532;DHT22;11943;52.270;20.978;2023-04-23T11:57:56;22.70;38.00
23532;DHT22;11943;52.270;20.978;2023-04-23T12:00:22;22.80;38.30
23532;DHT22;11943;52.270;20.978;2023-04-23T12:05:15;23.10;37.20
23532;DHT22;11943;52.270;20.978;2023-04-23T12:07:47;23.00;36.90
23532;DHT22;11943;52.270;20.978;2023-04-23T12:10:20;23.10;36.90
23532;DHT22;11943;52.270;20.978;2023-04-23T12:12:52;22.80;36.50
23532;DHT22;11943;52.270;20.978;2023-04-23T12:15:19;23.10;37.70
23532;DHT22;11943;52.270;20.978;2023-04-23T12:17:49;23.00;35.90
23532;DHT22;11943;52.270;20.978;2023-04-23T12:20:19;22.80;36.30
23532;DHT22;11943;52.270;20.978;2023-04-23T12:22:45;23.20;38.90
23532;DHT22;11943;52.270;20.978;2023-04-23T12:25:11;23.30;36.90
23532;DHT22;11943;52.270;20.978;2023-04-23T12:27:42;23.30;36.30
23532;DHT22;11943;52.270;20.978;2023-04-23T12:30:09;23.10;36.90
23532;DHT22;11943;52.270;20.978;2023-04-23T12:32:36;23.30;37.40
23532;DHT22;11943;52.270;20.978;2023-04-23T12:35:02;23.20;37.30
23532;DHT22;11943;52.270;20.978;2023-04-23T12:37:35;23.20;36.10
23532;DHT22;11943;52.270;20.978;2023-04-23T12:40:01;23.40;35.40
23532;DHT22;11943;52.270;20.978;2023-04-23T12:42:31;23.30;35.20
23532;DHT22;11943;52.270;20.978;2023-04-23T12:45:05;23.00;34.80
23532;DHT22;11943;52.270;20.978;2023-04-23T12:47:31;23.20;37.10
23532;DHT22;11943;52.270;20.978;2023-04-23T12:49:57;23.00;36.40
23532;DHT22;11943;52.270;20.978;2023-04-23T12:52:25;22.90;36.70
23532;DHT22;11943;52.270;20.978;2023-04-23T12:54:51;22.70;36.80
23532;DHT22;11943;52.270;20.978;2023-04-23T12:57:20;23.10;38.90
23532;DHT22;11943;52.270;20.978;2023-04-23T12:59:47;23.00;35.60
23532;DHT22;11943;52.270;20.978;2023-04-23T13:02:13;23.10;36.30
23532;DHT22;11943;52.270;20.978;2023-04-23T13:04:39;23.00;37.50
23532;DHT22;11943;52.270;20.978;2023-04-23T13:07:04;23.20;36.70
23532;DHT22;11943;52.270;20.978;2023-04-23T13:09:30;23.30;35.60
23532;DHT22;11943;52.270;20.978;2023-04-23T13:11:56;23.10;34.60
23532;DHT22;11943;52.270;20.978;2023-04-23T13:14:21;23.30;35.50
23532;DHT22;11943;52.270;20.978;2023-04-23T13:16:48;23.10;35.20
23532;DHT22;11943;52.270;20.978;2023-04-23T13:19:13;23.20;36.60
23532;DHT22;11943;52.270;20.978;2023-04-23T13:21:41;23.10;36.20
23532;DHT22;11943;52.270;20.978;2023-04-23T13:24:06;23.20;37.10
23532;DHT22;11943;52.270;20.978;2023-04-23T13:26:32;23.20;36.50
23532;DHT22;11943;52.270;20.978;2023-04-23T13:28:59;23.00;36.30
23532;DHT22;11943;52.270;20.978;2023-04-23T13:31:25;23.30;37.10
23532;DHT22;11943;52.270;20.978;2023-04-23T13:33:51;23.10;36.80
23532;DHT22;11943;52.270;20.978;2023-04-23T13:36:17;23.30;36.80
23532;DHT22;11943;52.270;20.978;2023-04-23T13:38:43;23.70;38.50
23532;DHT22;11943;52.270;20.978;2023-04-23T13:41:08;23.80;37.10
23532;DHT22;11943;52.270;20.978;2023-04-23T13:43:34;23.20;35.70
23532;DHT22;11943;52.270;20.978;2023-04-23T13:46:00;23.10;37.00
23532;DHT22;11943;52.270;20.978;2023-04-23T13:48:26;23.40;37.50
23532;DHT22;11943;52.270;20.978;2023-04-23T13:50:56;23.10;36.30
23532;DHT22;11943;52.270;20.978;2023-04-23T13:53:22;22.90;36.00
23532;DHT22;11943;52.270;20.978;2023-04-23T13:55:48;23.00;36.20
23532;DHT22;11943;52.270;20.978;2023-04-23T13:58:13;23.30;36.90
23532;DHT22;11943;52.270;20.978;2023-04-23T14:00:41;23.30;36.20
23532;DHT22;11943;52.270;20.978;2023-04-23T14:03:07;23.20;37.70
23532;DHT22;11943;52.270;20.978;2023-04-23T14:05:33;23.30;36.90
23532;DHT22;11943;52.270;20.978;2023-04-23T14:07:59;23.40;37.10
23532;DHT22;11943;52.270;20.978;2023-04-23T14:10:25;23.60;37.60
23532;DHT22;11943;52.270;20.978;2023-04-23T14:12:51;23.40;36.60
23532;DHT22;11943;52.270;20.978;2023-04-23T14:15:17;23.30;36.50
23532;DHT22;11943;52.270;20.978;2023-04-23T14:17:43;23.30;37.10
23532;DHT22;11943;52.270;20.978;2023-04-23T14:20:10;23.30;37.20
23532;DHT22;11943;52.270;20.978;2023-04-23T14:22:38;23.10;36.80
23532;DHT22;11943;52.270;20.978;2023-04-23T14:25:09;23.10;38.10
23532;DHT22;11943;52.270;20.978;2023-04-23T14:27:40;23.10;37.60
23532;DHT22;11943;52.270;20.978;2023-04-23T14:30:18;23.40;37.70
23532;DHT22;11943;52.270;20.978;2023-04-23T14:32:44;23.30;37.60
23532;DHT22;11943;52.270;20.978;2023-04-23T14:35:12;23.40;37.90
23532;DHT22;11943;52.270;20.978;2023-04-23T14:37:39;23.40;37.30
23532;DHT22;11943;52.270;20.978;2023-04-23T14:40:09;23.50;36.80
23532;DHT22;11943;52.270;20.978;2023-04-23T14:42:35;23.40;36.80
23532;DHT22;11943;52.270;20.978;2023-04-23T14:45:01;23.30;36.70
23532;DHT22;11943;52.270;20.978;2023-04-23T14:47:26;23.30;37.90
23532;DHT22;11943;52.270;20.978;2023-04-23T14:49:52;23.10;37.00
23532;DHT22;11943;52.270;20.978;2023-04-23T14:52:18;22.80;37.70
23532;DHT22;11943;52.270;20.978;2023-04-23T14:54:44;22.90;38.50
23532;DHT22;11943;52.270;20.978;2023-04-23T14:57:09;22.80;39.10
23532;DHT22;11943;52.270;20.978;2023-04-23T14:59:37;22.80;38.20
23532;DHT22;11943;52.270;20.978;2023-04-23T15:02:02;22.90;38.00
23532;DHT22;11943;52.270;20.978;2023-04-23T15:04:28;22.80;38.20
23532;DHT22;11943;52.270;20.978;2023-04-23T15:06:54;22.70;38.00
23532;DHT22;11943;52.270;20.978;2023-04-23T15:09:19;22.60;38.60
23532;DHT22;11943;52.270;20.978;2023-04-23T15:11:45;22.50;38.60
23532;DHT22;11943;52.270;20.978;2023-04-23T15:14:25;22.50;38.80
23532;DHT22;11943;52.270;20.978;2023-04-23T15:16:54;22.50;38.60
23532;DHT22;11943;52.270;20.978;2023-04-23T15:19:20;22.50;38.70
23532;DHT22;11943;52.270;20.978;2023-04-23T15:21:46;22.40;39.00